Time;durP1;ratioP1;P1;durP2;ratioP2;P2;SDS_P1;SDS_P2;PMS_P1;PMS_P2;Temp;Humidity;BMP_temperature;BMP_pressure;BME280_temperature;BME280_humidity;BME280_pressure;Samples;Min_cycle;Max_cycle;Signal;HPM_P1;HPM_P2
2023/07/29 00:00:14;;;;;;;2.53;2.42;;;21.00;99.90;;;21.29;82.68;100612.66;5043350;28;20046;-69
2023/07/29 00:02:44;;;;;;;2.35;2.25;;;20.90;99.90;;;21.19;82.08;100606.00;5047394;28;20048;-69
2023/07/29 00:05:12;;;;;;;2.97;2.80;;;20.80;99.90;;;21.20;81.83;100600.53;5045171;28;20099;-69
2023/07/29 00:07:41;;;;;;;2.58;2.47;;;20.80;99.90;;;21.20;81.61;100607.72;5046191;28;20090;-69
2023/07/29 00:10:10;;;;;;;2.60;2.50;;;20.80;99.90;;;21.16;81.43;100611.53;5045876;28;20135;-69
2023/07/29 00:12:39;;;;;;;2.85;2.75;;;20.80;99.90;;;21.10;81.32;100601.09;5045862;28;20098;-69
2023/07/29 00:15:10;;;;;;;2.87;2.77;;;20.80;99.90;;;21.12;80.93;100597.38;5046869;28;20387;-69
2023/07/29 00:17:38;;;;;;;2.40;2.30;;;20.80;99.90;;;21.10;80.77;100601.97;5044196;28;20091;-69
2023/07/29 00:20:08;;;;;;;2.75;2.65;;;20.70;99.90;;;21.09;80.71;100610.13;5043792;28;20064;-69
2023/07/29 00:22:36;;;;;;;2.47;2.38;;;20.80;99.90;;;21.14;80.49;100602.66;5035735;28;20509;-69
2023/07/29 00:25:06;;;;;;;2.40;2.30;;;20.80;99.90;;;21.11;80.32;100605.53;5036243;28;20053;-69
2023/07/29 00:27:34;;;;;;;2.30;2.20;;;20.80;99.90;;;21.07;80.46;100598.56;5035865;28;20041;-69
2023/07/29 00:30:05;;;;;;;2.25;2.15;;;20.70;99.90;;;21.01;80.82;100594.38;5073636;28;20064;-68
2023/07/29 00:32:34;;;;;;;2.42;2.33;;;20.70;99.90;;;21.04;81.01;100598.72;5045182;28;20544;-69
2023/07/29 00:35:02;;;;;;;2.20;2.10;;;20.70;99.90;;;20.91;81.18;100570.66;5046384;28;20107;-69
2023/07/29 00:37:31;;;;;;;2.42;2.33;;;20.70;99.90;;;21.02;81.51;100592.56;5059698;28;20507;-69
2023/07/29 00:40:00;;;;;;;2.50;2.40;;;20.70;99.90;;;21.04;81.91;100593.34;5058951;28;20049;-69
2023/07/29 00:42:28;;;;;;;2.53;2.42;;;20.70;99.90;;;21.01;82.34;100593.50;5042582;28;20502;-69
2023/07/29 00:44:57;;;;;;;2.40;2.30;;;20.70;99.90;;;21.01;82.95;100588.13;5053685;28;20055;-69
2023/07/29 00:47:28;;;;;;;2.58;2.47;;;20.70;99.90;;;21.01;83.36;100590.81;5076889;28;20163;-69
2023/07/29 00:49:56;;;;;;;2.67;2.58;;;20.70;99.90;;;20.99;83.81;100579.22;5046078;28;20052;-69
2023/07/29 00:52:25;;;;;;;2.60;2.50;;;20.70;99.90;;;21.03;84.12;100581.72;5057528;28;20574;-70
2023/07/29 00:54:55;;;;;;;2.85;2.75;;;20.70;99.90;;;20.91;84.21;100570.66;5046097;28;20499;-69
2023/07/29 00:57:26;;;;;;;2.58;2.47;;;20.60;99.90;;;20.95;84.69;100585.72;5050981;28;20115;-69
2023/07/29 00:59:54;;;;;;;2.60;2.50;;;20.60;99.90;;;20.97;84.61;100586.50;5047077;28;20399;-69
2023/07/29 01:02:23;;;;;;;2.40;2.30;;;20.60;99.90;;;20.94;84.81;100578.59;5032982;28;20081;-69
2023/07/29 01:04:55;;;;;;;2.40;2.30;;;20.60;99.90;;;20.96;84.93;100579.38;5035111;28;20112;-68
2023/07/29 01:07:31;;;;;;;3.20;3.10;;;20.60;99.90;;;20.96;85.09;100577.59;5035261;28;20045;-69
2023/07/29 01:10:05;;;;;;;2.70;2.60;;;20.60;99.90;;;20.90;85.48;100569.81;5045816;28;20549;-69
2023/07/29 01:12:45;;;;;;;2.70;2.60;;;20.60;99.90;;;20.89;86.09;100581.50;5075425;28;20057;-69
2023/07/29 01:15:19;;;;;;;2.60;2.50;;;20.50;99.90;;;20.87;86.34;100566.41;5035136;28;20072;-69
2023/07/29 01:17:54;;;;;;;2.63;2.53;;;20.50;99.90;;;20.87;86.56;100563.72;5050457;28;20058;-69
2023/07/29 01:20:26;;;;;;;2.38;2.28;;;20.50;99.90;;;20.83;86.79;100564.84;5043095;28;20045;-69
2023/07/29 01:22:55;;;;;;;2.65;2.55;;;20.50;99.90;;;20.79;86.77;100566.78;5052430;28;20049;-69
2023/07/29 01:25:25;;;;;;;2.72;2.63;;;20.40;99.90;;;20.75;87.01;100567.91;5044385;28;20087;-69
2023/07/29 01:27:55;;;;;;;2.40;2.30;;;20.40;99.90;;;20.80;87.05;100564.97;5044858;28;20041;-69
2023/07/29 01:30:31;;;;;;;2.58;2.47;;;20.40;99.90;;;20.79;86.73;100565.94;5045762;28;20110;-69
2023/07/29 01:33:07;;;;;;;2.53;2.42;;;20.50;99.90;;;20.74;86.54;100558.09;5034754;28;20482;-69
2023/07/29 01:35:43;;;;;;;3.05;2.90;;;20.40;99.90;;;20.71;86.63;100560.97;5043755;28;20146;-69
2023/07/29 01:38:19;;;;;;;2.95;2.85;;;20.40;99.90;;;20.71;86.43;100566.34;5042183;28;20406;-69
2023/07/29 01:40:51;;;;;;;2.70;2.60;;;20.40;99.90;;;20.73;86.43;100553.66;5041404;28;20045;-69
2023/07/29 01:43:23;;;;;;;2.75;2.65;;;20.40;99.90;;;20.72;86.11;100567.19;5035936;28;20049;-69
2023/07/29 01:45:54;;;;;;;2.95;2.85;;;20.40;99.90;;;20.68;85.98;100556.59;5059388;28;20048;-69
2023/07/29 01:48:23;;;;;;;2.78;2.67;;;20.40;99.90;;;20.67;85.63;100554.84;5060828;28;20055;-69
2023/07/29 01:50:52;;;;;;;2.85;2.75;;;20.40;99.90;;;20.66;85.50;100553.13;5058206;28;20056;-69
2023/07/29 01:53:20;;;;;;;2.50;2.40;;;20.30;99.90;;;20.68;85.54;100550.34;5078060;28;20052;-69
2023/07/29 01:55:50;;;;;;;3.00;2.90;;;20.40;99.90;;;20.64;85.53;100546.97;5032978;28;20449;-69
2023/07/29 01:58:18;;;;;;;2.67;2.58;;;20.40;99.90;;;20.65;85.49;100551.38;5049654;28;20065;-69
2023/07/29 02:00:48;;;;;;;2.42;2.33;;;20.30;99.90;;;20.64;85.45;100549.66;5066275;28;20545;-69
2023/07/29 02:03:17;;;;;;;2.40;2.30;;;20.30;99.90;;;20.66;85.25;100544.19;5035628;28;20079;-69
2023/07/29 02:05:46;;;;;;;2.50;2.40;;;20.40;99.90;;;20.64;85.12;100532.63;5043794;28;20291;-69
2023/07/29 02:08:14;;;;;;;2.40;2.30;;;20.30;99.90;;;20.29;84.92;100469.06;5059913;28;20495;-69
2023/07/29 02:10:45;;;;;;;2.42;2.33;;;20.40;99.90;;;20.72;84.91;100537.63;5058362;28;20049;-69
2023/07/29 02:13:15;;;;;;;2.85;2.75;;;20.40;99.90;;;20.67;84.90;100538.72;5045450;28;20553;-69
2023/07/29 02:15:44;;;;;;;3.00;2.90;;;20.40;99.90;;;20.71;84.89;100530.50;5033965;28;20056;-69
2023/07/29 02:18:12;;;;;;;2.60;2.50;;;20.40;99.90;;;20.67;84.81;100527.97;5049262;28;20052;-71
2023/07/29 02:20:42;;;;;;;3.47;3.28;;;20.30;99.90;;;20.69;84.95;100534.13;5049185;28;20408;-69
2023/07/29 02:23:10;;;;;;;2.83;2.73;;;20.40;99.90;;;20.68;84.88;100527.03;5050411;28;20077;-69
2023/07/29 02:25:39;;;;;;;2.50;2.40;;;20.40;99.90;;;20.69;85.06;100534.13;5058976;28;20110;-69
2023/07/29 02:28:07;;;;;;;2.70;2.60;;;20.40;99.90;;;20.69;84.88;100526.06;5059200;28;20046;-70
2023/07/29 02:30:38;;;;;;;2.65;2.55;;;20.40;99.90;;;20.72;84.59;100519.69;5058199;28;20049;-69
2023/07/29 02:33:06;;;;;;;;;;;20.40;99.90;;;20.68;84.95;100518.97;5060720;28;20049;-69
2023/07/29 02:35:35;;;;;;;2.65;2.55;;;20.30;99.90;;;20.72;84.88;100510.72;5040278;28;19924;-69
2023/07/29 02:38:03;;;;;;;2.55;2.45;;;20.40;99.90;;;20.71;85.17;100506.31;5048433;28;20049;-69
2023/07/29 02:40:32;;;;;;;2.75;2.65;;;20.40;99.90;;;20.73;84.94;100510.66;5033202;28;20458;-70
2023/07/29 02:43:00;;;;;;;2.50;2.40;;;20.40;99.90;;;20.69;84.96;100512.63;5033391;28;20045;-69
2023/07/29 02:45:28;;;;;;;2.60;2.50;;;20.40;99.90;;;20.67;85.13;100514.53;5034612;28;20124;-69
2023/07/29 02:47:58;;;;;;;2.67;2.58;;;20.40;99.90;;;20.66;85.29;100517.31;5058974;28;20080;-69
2023/07/29 02:50:27;;;;;;;2.92;2.83;;;20.30;99.90;;;20.61;85.50;100512.16;5043588;28;20069;-69
2023/07/29 02:52:55;;;;;;;2.67;2.58;;;20.30;99.90;;;20.63;85.65;100504.88;5042559;28;20072;-69
2023/07/29 02:55:23;;;;;;;2.72;2.63;;;20.30;99.90;;;20.60;85.76;100510.44;5044091;28;20137;-69
2023/07/29 02:57:52;;;;;;;2.63;2.53;;;20.30;99.90;;;20.59;86.02;100508.69;5057082;28;20049;-69
2023/07/29 03:00:20;;;;;;;2.70;2.60;;;20.30;99.90;;;20.57;86.11;100515.97;5044905;28;20037;-70
2023/07/29 03:02:49;;;;;;;2.60;2.50;;;20.20;99.90;;;20.53;86.43;100519.75;5040141;28;20457;-69
2023/07/29 03:05:19;;;;;;;2.80;2.70;;;20.20;99.90;;;20.35;86.99;100504.56;5044035;28;20118;-69
2023/07/29 03:07:48;;;;;;;2.65;2.55;;;20.10;99.90;;;20.40;87.49;100526.69;5054413;28;20132;-70
2023/07/29 03:10:16;;;;;;;2.83;2.72;;;20.10;99.90;;;20.41;87.76;100522.19;5074805;28;20103;-69
2023/07/29 03:12:45;;;;;;;2.80;2.70;;;20.00;99.90;;;20.35;88.23;100525.16;5042989;28;20500;-69
2023/07/29 03:15:13;;;;;;;2.67;2.58;;;20.00;99.90;;;20.33;88.63;100516.31;5042909;28;20441;-69
2023/07/29 03:17:42;;;;;;;2.60;2.50;;;20.00;99.90;;;20.31;88.62;100519.09;5057472;28;20410;-69
2023/07/29 03:20:10;;;;;;;3.13;3.03;;;20.00;99.90;;;20.36;88.74;100517.03;5056070;28;20045;-69
2023/07/29 03:22:40;;;;;;;2.60;2.50;;;20.00;99.90;;;20.29;88.88;100522.78;5076537;28;20517;-69
2023/07/29 03:25:09;;;;;;;3.90;3.60;;;19.90;99.90;;;20.27;89.21;100513.94;5064348;28;20446;-68
2023/07/29 03:27:39;;;;;;;3.00;2.90;;;19.90;99.90;;;20.25;89.28;100510.44;5042969;28;20046;-69
2023/07/29 03:30:08;;;;;;;2.78;2.67;;;19.90;99.90;;;20.22;89.58;100516.00;5042495;28;20050;-69
2023/07/29 03:32:40;;;;;;;3.30;3.20;;;19.90;99.90;;;20.20;89.64;100524.13;5047849;28;20076;-69
2023/07/29 03:35:09;;;;;;;2.70;2.60;;;19.90;99.90;;;20.16;89.98;100527.00;5041019;28;20054;-69
2023/07/29 03:37:37;;;;;;;2.97;2.88;;;19.80;99.90;;;20.19;90.25;100537.66;5058883;28;20175;-69
2023/07/29 03:40:09;;;;;;;2.83;2.72;;;19.80;99.90;;;20.16;90.34;100535.06;5056804;28;20140;-69
2023/07/29 03:42:38;;;;;;;4.10;3.03;;;19.80;99.90;;;20.14;90.50;100537.81;5047993;28;20053;-69
2023/07/29 03:45:07;;;;;;;2.70;2.60;;;19.80;99.90;;;20.13;90.72;100519.94;5043058;28;20049;-69
2023/07/29 03:47:36;;;;;;;2.93;2.83;;;19.80;99.90;;;20.17;90.64;100516.16;5048043;28;20095;-69
2023/07/29 03:50:06;;;;;;;3.20;3.10;;;19.80;99.90;;;20.11;90.63;100523.69;5064747;28;20549;-69
2023/07/29 03:52:35;;;;;;;2.55;2.45;;;19.80;99.90;;;20.13;90.88;100524.47;5041291;28;20053;-69
2023/07/29 03:55:03;;;;;;;3.13;3.03;;;19.70;99.90;;;20.09;90.94;100529.09;5041753;28;20482;-69
2023/07/29 03:57:33;;;;;;;3.10;3.00;;;19.80;99.90;;;20.01;91.22;100528.63;5058614;28;20052;-68
2023/07/29 04:00:02;;;;;;;2.77;2.67;;;19.70;99.90;;;20.06;91.42;100523.91;5041100;28;20046;-69
2023/07/29 04:02:31;;;;;;;2.85;2.75;;;19.70;99.90;;;20.12;91.32;100520.03;5044117;28;20284;-69
2023/07/29 04:05:00;;;;;;;2.88;2.78;;;19.80;99.90;;;20.11;91.19;100505.72;5055772;28;20057;-69
2023/07/29 04:07:29;;;;;;;2.88;2.78;;;19.80;99.90;;;20.07;91.40;100504.16;5059040;28;20106;-69
2023/07/29 04:09:57;;;;;;;4.88;4.45;;;19.70;99.90;;;20.13;91.17;100511.91;5041365;28;20437;-69
2023/07/29 04:12:26;;;;;;;2.72;2.63;;;19.80;99.90;;;20.07;91.35;100531.03;5058139;28;20052;-69
2023/07/29 04:14:55;;;;;;;3.25;3.05;;;19.70;99.90;;;20.06;91.54;100521.22;5057610;28;20434;-69
2023/07/29 04:17:24;;;;;;;3.33;3.22;;;19.70;99.90;;;20.03;91.73;100521.38;5057271;28;20091;-69
2023/07/29 04:19:52;;;;;;;2.60;2.50;;;19.70;99.90;;;20.03;91.68;100529.44;5043161;28;20604;-69
2023/07/29 04:22:23;;;;;;;2.92;2.83;;;19.70;99.90;;;19.99;92.12;100527.84;5056054;28;20131;-68
2023/07/29 04:24:52;;;;;;;2.60;2.50;;;19.70;99.90;;;20.05;92.14;100519.47;5055607;28;20115;-69
2023/07/29 04:27:20;;;;;;;2.85;2.75;;;19.70;99.90;;;20.02;92.11;100524.97;5072625;28;20449;-69
2023/07/29 04:29:48;;;;;;;2.83;2.72;;;19.70;99.90;;;20.10;91.96;100529.97;5043507;28;20051;-69
2023/07/29 04:32:18;;;;;;;3.80;3.60;;;19.70;99.90;;;20.06;92.09;100525.69;5053306;28;20049;-69
2023/07/29 04:34:47;;;;;;;2.70;2.60;;;19.70;99.90;;;20.10;92.22;100525.50;5042063;28;20368;-69
2023/07/29 04:37:15;;;;;;;2.70;2.60;;;19.70;99.90;;;19.99;91.97;100503.66;5057978;28;20339;-69
2023/07/29 04:39:43;;;;;;;2.72;2.63;;;19.80;99.90;;;20.12;91.99;100534.34;5045995;28;20045;-69
2023/07/29 04:42:12;;;;;;;2.60;2.50;;;19.80;99.90;;;20.14;92.29;100545.00;5044847;28;20045;-69
2023/07/29 04:44:43;;;;;;;3.22;3.13;;;19.80;99.90;;;20.10;92.45;100541.59;5062212;28;20049;-69
2023/07/29 04:47:11;;;;;;;2.70;2.60;;;19.70;99.90;;;20.14;92.59;100545.88;5043736;28;20037;-69
2023/07/29 04:49:41;;;;;;;2.60;2.50;;;19.80;99.90;;;20.09;92.99;100541.69;5035451;28;20053;-70
2023/07/29 04:52:09;;;;;;;2.87;2.77;;;19.80;99.90;;;20.14;93.09;100535.13;5035500;28;20049;-69
2023/07/29 04:54:38;;;;;;;2.47;2.38;;;19.80;99.90;;;20.17;92.94;100536.81;5050756;28;20056;-69
2023/07/29 04:57:06;;;;;;;3.08;2.97;;;19.80;99.90;;;20.21;92.93;100536.59;5052192;28;20045;-69
2023/07/29 04:59:35;;;;;;;2.45;2.35;;;19.90;99.90;;;20.21;92.73;100539.28;5060839;28;20487;-69
2023/07/29 05:02:04;;;;;;;2.78;2.67;;;19.90;99.90;;;20.19;93.12;100538.50;5057779;28;20100;-69
2023/07/29 05:04:33;;;;;;;2.83;2.72;;;19.90;99.90;;;20.24;93.33;100549.03;5045806;28;20053;-69
2023/07/29 05:07:03;;;;;;;2.80;2.70;;;19.90;99.90;;;20.14;93.41;100548.56;5044054;28;20064;-69
2023/07/29 05:09:31;;;;;;;2.83;2.73;;;19.80;99.90;;;20.15;93.94;100542.22;5046578;28;20114;-69
2023/07/29 05:11:59;;;;;;;2.97;2.88;;;19.80;99.90;;;20.19;93.76;100516.16;5035091;28;20371;-69
2023/07/29 05:14:28;;;;;;;3.10;3.00;;;19.80;99.90;;;20.26;93.63;100520.25;5035108;28;20049;-69
2023/07/29 05:16:56;;;;;;;3.00;2.90;;;19.90;99.90;;;20.24;93.71;100509.59;5041667;28;20104;-69
2023/07/29 05:19:25;;;;;;;2.40;2.30;;;19.90;99.90;;;20.27;93.73;100509.44;5050566;28;20140;-69
2023/07/29 05:21:53;;;;;;;2.88;2.78;;;19.90;99.90;;;20.26;93.78;100521.16;5055868;28;20056;-69
2023/07/29 05:24:23;;;;;;;2.80;2.70;;;20.00;99.90;;;20.30;93.82;100524.53;5044678;28;20041;-69
2023/07/29 05:26:51;;;;;;;2.70;2.60;;;20.00;99.90;;;20.36;93.77;100522.41;5060622;28;20063;-69
2023/07/29 05:29:19;;;;;;;2.83;2.72;;;20.00;99.90;;;20.38;93.78;100523.19;5043803;28;20045;-69
2023/07/29 05:31:48;;;;;;;3.08;2.97;;;20.10;99.90;;;20.45;93.75;100516.59;5058363;28;20054;-69
2023/07/29 05:34:16;;;;;;;2.65;2.55;;;20.20;99.90;;;20.53;93.85;100519.75;5078462;28;20057;-69
2023/07/29 05:36:45;;;;;;;2.67;2.58;;;20.20;99.90;;;20.52;93.72;100518.00;5066528;28;20050;-69
2023/07/29 05:39:13;;;;;;;2.75;2.65;;;20.20;99.90;;;20.59;93.88;100523.94;5034500;28;20136;-69
2023/07/29 05:41:43;;;;;;;2.67;2.58;;;20.20;99.90;;;20.61;93.84;100517.53;5049895;28;20049;-69
2023/07/29 05:44:11;;;;;;;2.60;2.50;;;20.30;99.90;;;20.65;94.04;100524.47;5051186;28;20049;-69
2023/07/29 05:46:40;;;;;;;2.70;2.60;;;20.40;99.90;;;20.63;93.72;100504.88;5059948;28;20048;-68
2023/07/29 05:49:08;;;;;;;2.47;2.38;;;20.40;99.90;;;20.74;93.80;100527.66;5059524;28;20064;-69
2023/07/29 05:51:37;;;;;;;2.70;2.60;;;20.40;99.90;;;20.81;94.01;100529.94;5059158;28;20040;-69
2023/07/29 05:54:05;;;;;;;2.80;2.70;;;20.50;99.90;;;20.76;93.82;100523.06;5057159;28;20091;-69
2023/07/29 05:56:34;;;;;;;2.60;2.50;;;20.50;99.90;;;20.85;93.93;100536.06;5045432;28;20131;-69
2023/07/29 05:59:04;;;;;;;2.40;2.30;;;20.50;99.90;;;20.87;94.02;100539.50;5049520;28;20131;-68
2023/07/29 06:01:33;;;;;;;2.53;2.42;;;20.60;99.90;;;20.83;94.15;100544.19;5049552;28;20049;-69
2023/07/29 06:04:01;;;;;;;2.90;2.80;;;20.60;99.90;;;20.62;94.32;100529.16;5049509;28;20556;-69
2023/07/29 06:06:30;;;;;;;2.60;2.50;;;20.40;99.90;;;20.68;94.70;100553.03;5034111;28;20046;-69
2023/07/29 06:08:58;;;;;;;2.70;2.60;;;20.40;99.90;;;20.66;94.97;100537.00;5038175;28;20068;-69
2023/07/29 06:11:27;;;;;;;3.47;3.38;;;20.40;99.90;;;20.71;95.22;100536.78;5050829;28;20114;-69
2023/07/29 06:13:55;;;;;;;2.80;2.70;;;20.40;99.90;;;20.75;95.44;100537.47;5056199;28;20080;-69
2023/07/29 06:16:25;;;;;;;2.70;2.60;;;20.40;99.90;;;20.72;95.59;100526.88;5076376;28;20049;-69
2023/07/29 06:18:55;;;;;;;2.55;2.45;;;20.50;99.90;;;20.83;95.96;100537.97;5058268;28;20053;-69
2023/07/29 06:21:23;;;;;;;2.33;2.22;;;20.50;99.90;;;20.86;95.69;100538.66;5060899;28;20045;-69
2023/07/29 06:23:52;;;;;;;2.90;2.70;;;20.50;99.90;;;20.85;95.61;100536.06;5041826;28;20077;-69
2023/07/29 06:26:20;;;;;;;2.80;2.70;;;20.60;99.90;;;20.83;95.55;100532.59;5060515;28;20065;-69
2023/07/29 06:28:48;;;;;;;2.53;2.42;;;20.60;99.90;;;20.87;95.29;100539.50;5042264;28;20073;-68
2023/07/29 06:31:17;;;;;;;2.60;2.50;;;20.60;99.90;;;20.91;95.48;100546.47;5044076;28;20045;-69
2023/07/29 06:33:48;;;;;;;2.50;2.40;;;20.60;99.90;;;20.92;95.24;100540.16;5043402;28;20041;-67
2023/07/29 06:36:16;;;;;;;2.70;2.60;;;20.60;99.90;;;20.97;95.04;100536.28;5042841;28;20040;-68
2023/07/29 06:38:45;;;;;;;2.78;2.67;;;20.60;99.90;;;20.98;94.50;100537.16;5043850;28;20072;-67
2023/07/29 06:41:13;;;;;;;2.40;2.30;;;20.70;99.90;;;21.04;94.26;100531.50;5057658;28;20049;-70
2023/07/29 06:43:44;;;;;;;2.60;2.50;;;20.70;99.90;;;21.10;93.87;100539.25;5060603;28;20057;-68
2023/07/29 06:46:12;;;;;;;2.60;2.50;;;20.80;99.90;;;21.06;94.04;100535.81;5033066;28;20053;-69
2023/07/29 06:48:40;;;;;;;2.70;2.60;;;20.80;99.90;;;21.10;93.58;100550.00;5040524;28;20042;-67
2023/07/29 06:51:10;;;;;;;2.80;2.70;;;20.80;99.90;;;20.78;93.71;100480.84;5032731;28;20049;-69
2023/07/29 06:53:38;;;;;;;2.85;2.75;;;20.80;99.90;;;21.29;93.55;100540.84;5048480;28;20053;-68
2023/07/29 06:56:07;;;;;;;2.50;2.40;;;20.90;99.90;;;21.39;92.57;100543.91;5038550;28;20159;-67
2023/07/29 06:58:36;;;;;;;2.55;2.45;;;21.10;99.90;;;21.54;91.81;100549.31;5042798;28;20065;-70
2023/07/29 07:01:04;;;;;;;2.60;2.50;;;21.20;99.90;;;21.69;90.54;100546.75;5043033;28;20053;-68
2023/07/29 07:03:33;;;;;;;3.08;2.88;;;21.30;99.90;;;21.80;88.75;100552.41;5041812;28;20072;-72
2023/07/29 07:06:01;;;;;;;2.58;2.47;;;21.40;99.90;;;21.93;87.29;100575.06;5043956;28;20122;-73
2023/07/29 07:08:31;;;;;;;2.63;2.53;;;21.60;99.90;;;22.08;86.44;100547.25;5040837;28;20099;-73
2023/07/29 07:10:59;;;;;;;2.30;2.20;;;21.80;99.90;;;22.20;86.02;100544.72;5041005;28;20073;-69
2023/07/29 07:13:27;;;;;;;3.15;2.95;;;21.90;99.90;;;22.28;84.53;100547.84;5044153;28;20124;-66
2023/07/29 07:15:56;;;;;;;2.40;2.30;;;22.00;99.90;;;22.20;83.70;100560.06;5053866;28;20402;-66
2023/07/29 07:18:25;;;;;;;2.80;2.70;;;21.90;99.90;;;22.17;82.63;100555.69;5042034;28;20045;-66
2023/07/29 07:20:53;;;;;;;2.50;2.40;;;21.90;99.90;;;22.14;83.03;100558.53;5042713;28;20053;-67
2023/07/29 07:23:21;;;;;;;2.33;2.22;;;21.80;99.90;;;22.18;82.82;100561.97;5055042;28;20132;-66
2023/07/29 07:25:51;;;;;;;2.45;2.35;;;21.90;99.90;;;22.08;81.93;100540.06;5043339;28;20124;-66
2023/07/29 07:28:19;;;;;;;2.50;2.40;;;21.90;99.90;;;22.09;82.04;100568.72;5041591;28;20146;-66
2023/07/29 07:30:48;;;;;;;2.90;2.80;;;21.80;99.90;;;22.03;81.88;100562.81;5043885;28;20483;-66
2023/07/29 07:33:16;;;;;;;2.60;2.50;;;21.70;99.90;;;22.09;82.49;100563.34;5056102;28;20557;-66
2023/07/29 07:35:44;;;;;;;2.67;2.58;;;21.70;99.90;;;22.17;81.81;100562.91;5056071;28;20088;-66
2023/07/29 07:38:13;;;;;;;2.17;2.08;;;21.80;99.90;;;22.33;81.57;100564.66;5043638;28;20437;-66
2023/07/29 07:40:41;;;;;;;3.25;3.13;;;22.00;99.90;;;22.44;80.65;100567.59;5053656;28;20053;-66
2023/07/29 07:43:11;;;;;;;2.55;2.45;;;22.10;99.90;;;22.48;79.98;100573.66;5041584;28;20111;-66
2023/07/29 07:45:40;;;;;;;2.53;2.43;;;22.20;99.90;;;22.63;79.76;100575.50;5042438;28;20116;-66
2023/07/29 07:48:10;;;;;;;2.40;2.30;;;22.30;99.90;;;22.72;77.92;100569.56;5042548;28;20288;-67
2023/07/29 07:50:38;;;;;;;2.60;2.50;;;22.40;99.90;;;22.81;77.86;100565.44;5041673;28;20053;-67
2023/07/29 07:53:06;;;;;;;2.22;2.13;;;22.50;99.90;;;22.86;77.25;100577.69;5043491;28;20048;-66
2023/07/29 07:55:35;;;;;;;2.33;2.22;;;22.50;99.90;;;22.86;76.86;100563.38;5055946;28;20128;-67
2023/07/29 07:58:04;;;;;;;2.60;2.50;;;22.60;99.90;;;23.05;75.97;100578.31;5040151;28;20502;-66
2023/07/29 08:00:34;;;;;;;2.40;2.30;;;22.70;99.90;;;23.16;75.52;100589.38;5032112;28;20073;-68
2023/07/29 08:03:02;;;;;;;2.50;2.40;;;22.80;99.90;;;23.14;75.42;100588.59;5032176;28;20096;-66
2023/07/29 08:05:31;;;;;;;2.08;1.98;;;22.90;99.90;;;23.22;75.45;100588.13;5031985;28;20072;-67
2023/07/29 08:08:00;;;;;;;2.65;2.55;;;22.90;99.90;;;23.25;75.11;100585.22;5070235;28;20061;-67
2023/07/29 08:10:29;;;;;;;2.35;2.25;;;22.90;99.90;;;23.14;73.29;100595.81;5041686;28;20075;-66
2023/07/29 08:12:57;;;;;;;2.60;2.50;;;22.90;99.90;;;23.13;73.51;100599.47;5045919;28;20087;-67
2023/07/29 08:15:26;;;;;;;2.35;2.25;;;22.90;99.90;;;23.27;74.55;100602.19;5045203;28;20128;-68
2023/07/29 08:17:55;;;;;;;2.33;2.22;;;23.00;99.90;;;23.11;73.05;100609.50;5047539;28;20394;-68
2023/07/29 08:20:30;;;;;;;2.15;2.05;;;22.90;99.90;;;23.16;73.42;100604.69;5047629;28;20095;-68
2023/07/29 08:23:04;;;;;;;2.30;2.20;;;22.90;99.90;;;23.08;74.49;100601.56;5044867;28;20034;-68
2023/07/29 08:25:36;;;;;;;2.45;2.35;;;22.80;99.90;;;23.05;75.26;100590.97;5052049;28;20060;-71
2023/07/29 08:28:11;;;;;;;2.50;2.40;;;22.80;99.90;;;22.99;75.05;100592.22;5047378;28;20468;-71
2023/07/29 08:30:39;;;;;;;;;;;22.70;99.90;;;23.03;75.05;100601.00;5036328;28;20046;-71
2023/07/29 08:33:08;;;;;;;2.40;2.30;;;22.70;99.90;;;23.09;75.51;100611.41;5035811;28;19992;-70
2023/07/29 08:35:37;;;;;;;2.50;2.20;;;22.80;99.90;;;22.95;75.80;100597.88;5042572;28;20060;-69
2023/07/29 08:38:06;;;;;;;2.80;2.60;;;22.70;99.90;;;22.83;77.14;100594.06;5050999;28;20689;-76
2023/07/29 08:40:39;;;;;;;2.30;2.20;;;22.50;99.90;;;22.87;77.92;100601.03;5043357;28;20127;-68
2023/07/29 08:43:09;;;;;;;2.55;2.45;;;22.50;99.90;;;22.84;78.41;100611.16;5058878;28;20096;-69
2023/07/29 08:45:37;;;;;;;3.00;2.90;;;22.50;99.90;;;22.58;78.33;100588.38;5062714;28;20406;-68
2023/07/29 08:48:11;;;;;;;2.47;2.38;;;22.40;99.90;;;22.39;78.64;100585.88;5046918;28;20049;-68
2023/07/29 08:50:40;;;;;;;2.42;2.33;;;22.20;99.90;;;21.82;79.31;100507.44;5044550;28;20094;-67
2023/07/29 08:53:09;;;;;;;2.30;2.20;;;22.10;99.90;;;22.41;80.11;100605.47;5045390;28;20055;-68
2023/07/29 08:55:38;;;;;;;2.65;2.55;;;22.00;99.90;;;22.44;80.08;100597.25;5045565;28;20049;-67
2023/07/29 08:58:07;;;;;;;2.72;2.63;;;22.10;99.90;;;22.51;80.82;100604.97;5044335;28;20095;-68
2023/07/29 09:00:36;;;;;;;2.63;2.53;;;22.10;99.90;;;22.47;81.12;100600.72;5046114;28;20078;-69
2023/07/29 09:03:06;;;;;;;2.60;2.50;;;22.10;99.90;;;22.41;81.53;100608.19;5043433;28;20045;-68
2023/07/29 09:05:36;;;;;;;2.60;2.50;;;22.10;99.90;;;22.43;79.98;100600.88;5043529;28;20057;-68
2023/07/29 09:08:06;;;;;;;2.63;2.53;;;22.10;99.90;;;22.34;80.40;100581.66;5046092;28;20041;-67
2023/07/29 09:10:37;;;;;;;2.42;2.33;;;22.00;99.90;;;22.38;80.96;100588.63;5059528;28;20046;-69
2023/07/29 09:13:06;;;;;;;2.95;2.75;;;22.00;99.90;;;22.29;81.96;100603.50;5060469;28;20044;-68
2023/07/29 09:15:37;;;;;;;2.83;2.70;;;22.00;99.90;;;22.32;82.92;100606.03;5045477;28;20072;-70
2023/07/29 09:18:12;;;;;;;;;;;22.00;99.90;;;22.08;83.17;100567.00;5043878;28;20049;-69
2023/07/29 09:20:42;;;;;;;2.90;2.80;;;22.00;99.90;;;22.23;82.61;100609.25;5034782;28;19921;-69
2023/07/29 09:23:11;;;;;;;2.40;2.30;;;21.90;99.90;;;22.31;82.52;100607.00;5066148;28;20060;-69
2023/07/29 09:25:40;;;;;;;2.42;2.33;;;21.90;99.90;;;22.36;82.61;100601.31;5035030;28;20049;-69
2023/07/29 09:28:11;;;;;;;2.60;2.50;;;22.00;99.90;;;22.41;83.12;100596.56;5040787;28;20045;-69
2023/07/29 09:30:40;;;;;;;2.50;2.40;;;22.00;99.90;;;22.31;82.23;100574.66;5043701;28;20048;-69
2023/07/29 09:33:09;;;;;;;2.50;2.40;;;22.10;99.90;;;22.35;81.23;100589.69;5046140;28;20051;-70
2023/07/29 09:35:39;;;;;;;2.30;2.20;;;22.10;99.90;;;22.47;80.65;100604.28;5058367;28;20057;-69
2023/07/29 09:38:08;;;;;;;2.60;2.50;;;22.10;99.90;;;22.38;79.63;100604.78;5057991;28;20037;-69
2023/07/29 09:40:38;;;;;;;2.20;2.10;;;22.10;99.90;;;22.29;79.92;100605.34;5045641;28;20090;-70
2023/07/29 09:43:08;;;;;;;2.35;2.25;;;22.00;99.90;;;22.38;80.04;100597.59;5043694;28;20042;-70
2023/07/29 09:45:38;;;;;;;;;;;22.00;99.90;;;22.43;80.71;100586.56;5044813;28;20055;-69
2023/07/29 09:48:09;;;;;;;2.53;2.42;;;22.10;99.90;;;22.50;81.12;100592.44;5052288;28;20381;-70
2023/07/29 09:50:38;;;;;;;2.45;2.35;;;22.20;99.90;;;22.54;81.27;100585.91;5043406;28;20041;-70
2023/07/29 09:53:10;;;;;;;2.28;2.17;;;22.20;99.90;;;22.63;81.33;100596.22;5046155;28;20119;-69
2023/07/29 09:55:38;;;;;;;2.90;2.72;;;22.30;99.90;;;22.65;81.30;100592.44;5034033;28;20122;-68
2023/07/29 09:58:07;;;;;;;2.60;2.50;;;22.30;99.90;;;22.62;80.80;100597.16;5040894;28;20103;-68
2023/07/29 10:00:38;;;;;;;2.30;2.20;;;22.30;99.90;;;22.51;80.38;100599.59;5033899;28;20049;-68
2023/07/29 10:03:07;;;;;;;2.67;2.58;;;22.20;99.90;;;22.57;80.74;100600.13;5049615;28;20547;-69
2023/07/29 10:05:38;;;;;;;2.70;2.60;;;22.20;99.90;;;22.59;81.37;100605.44;5041809;28;20072;-69
2023/07/29 10:08:07;;;;;;;2.10;2.00;;;22.20;99.90;;;21.99;81.78;100516.31;5057477;28;20041;-68
2023/07/29 10:10:37;;;;;;;2.30;2.20;;;22.20;99.90;;;22.62;82.60;100629.53;5045332;28;20463;-68
2023/07/29 10:13:06;;;;;;;2.47;2.38;;;22.30;99.90;;;22.63;83.27;100623.19;5041951;28;20415;-67
2023/07/29 10:15:36;;;;;;;2.40;2.30;;;22.30;99.90;;;22.47;83.35;100619.59;5044820;28;20537;-68
2023/07/29 10:18:05;;;;;;;2.60;2.50;;;22.20;99.90;;;22.30;82.96;100626.78;5042913;28;20046;-69
2023/07/29 10:20:36;;;;;;;2.13;2.03;;;22.00;99.90;;;22.25;82.84;100628.00;5043956;28;20091;-69